Time,TemperatureF,DewpointF,PressureIn,WindDirection,WindDirectionDegrees,WindSpeedMPH,WindSpeedGustMPH,Humidity,HourlyPrecipIn,Conditions,Clouds,dailyrainin,SolarRadiationWatts/m^2,SoftwareType,DateUTC
2013-09-26 00:01:00,47.8,45.6,29.96,North,11,0.0,0.0,92,0.00,,,0.00,0,Wunderground v.1.15,2013-09-26 04:01:00,
2013-09-26 00:02:00,47.8,45.6,29.96,North,11,0.0,0.0,92,0.00,,,0.00,0,Wunderground v.1.15,2013-09-26 04:02:00,
2013-09-26 00:03:00,47.8,45.6,29.96,North,11,0.0,0.0,92,0.00,,,0.00,0,Wunderground v.1.15,2013-09-26 04:03:00,
2013-09-26 00:04:00,47.7,45.5,29.96,North,11,0.0,0.0,92,0.00,,,0.00,0,Wunderground v.1.15,2013-09-26 04:04:00,
2013-09-26 00:10:00,47.6,45.4,29.96,North,11,0.0,0.0,92,0.00,,,0.00,0,Wunderground v.1.15,2013-09-26 04:10:00,
2013-09-26 00:12:00,47.5,45.3,29.96,North,11,0.0,0.0,92,0.00,,,0.00,0,Wunderground v.1.15,2013-09-26 04:12:00,
2013-09-26 00:18:00,47.4,45.2,29.96,North,11,0.0,0.0,92,0.00,,,0.00,0,Wunderground v.1.15,2013-09-26 04:18:00,
2013-09-26 00:23:00,47.2,45.0,29.96,North,11,0.0,0.0,92,0.00,,,0.00,0,Wunderground v.1.15,2013-09-26 04:23:00,
2013-09-26 00:29:00,47.0,44.8,29.96,North,11,0.0,0.0,92,0.00,,,0.00,0,Wunderground v.1.15,2013-09-26 04:29:00,
2013-09-26 00:34:00,46.8,44.9,29.96,North,11,0.0,0.0,93,0.00,,,0.00,0,Wunderground v.1.15,2013-09-26 04:34:00,
2013-09-26 00:39:00,46.7,44.8,29.96,NNE,17,0.0,2.0,93,0.00,,,0.00,0,Wunderground v.1.15,2013-09-26 04:39:00,
2013-09-26 00:44:00,46.6,44.7,29.97,NNE,17,0.0,1.0,93,0.00,,,0.00,0,Wunderground v.1.15,2013-09-26 04:44:00,
2013-09-26 00:50:00,46.5,44.6,29.97,NNE,15,0.0,0.0,93,0.00,,,0.00,0,Wunderground v.1.15,2013-09-26 04:50:00,
2013-09-26 00:55:00,46.4,44.5,29.97,NNE,15,0.0,0.0,93,0.00,,,0.00,0,Wunderground v.1.15,2013-09-26 04:55:00,
2013-09-26 01:00:00,46.3,44.4,29.97,NNE,15,0.0,0.0,93,0.00,,,0.00,0,Wunderground v.1.15,2013-09-26 05:00:00,
2013-09-26 01:06:00,46.3,44.7,29.97,NNE,15,0.0,0.0,94,0.00,,,0.00,0,Wunderground v.1.15,2013-09-26 05:06:00,
2013-09-26 01:12:00,46.3,44.7,29.97,NNE,15,0.0,0.0,94,0.00,,,0.00,0,Wunderground v.1.15,2013-09-26 05:12:00,
2013-09-26 01:18:00,46.2,44.6,29.97,NNE,15,0.0,0.0,94,0.00,,,0.00,0,Wunderground v.1.15,2013-09-26 05:18:00,
2013-09-26 01:23:00,46.2,44.6,29.97,NNE,15,0.0,0.0,94,0.00,,,0.00,0,Wunderground v.1.15,2013-09-26 05:23:00,
2013-09-26 01:28:00,46.1,44.5,29.97,NNE,15,0.0,0.0,94,0.00,,,0.00,0,Wunderground v.1.15,2013-09-26 05:28:00,
2013-09-26 01:34:00,46.0,44.4,29.97,NNE,15,0.0,0.0,94,0.00,,,0.00,0,Wunderground v.1.15,2013-09-26 05:34:00,
2013-09-26 01:39:00,45.9,44.3,29.97,NNE,15,0.0,0.0,94,0.00,,,0.00,0,Wunderground v.1.15,2013-09-26 05:39:00,
2013-09-26 01:44:00,45.9,44.3,29.97,NNE,15,0.0,0.0,94,0.00,,,0.00,0,Wunderground v.1.15,2013-09-26 05:44:00,
2013-09-26 01:50:00,45.9,44.3,29.97,NNE,15,0.0,0.0,94,0.00,,,0.00,0,Wunderground v.1.15,2013-09-26 05:50:00,
2013-09-26 01:55:00,45.9,44.3,29.98,NNE,15,0.0,0.0,94,0.00,,,0.00,0,Wunderground v.1.15,2013-09-26 05:55:00,
2013-09-26 02:01:00,45.8,44.2,29.97,NNE,15,0.0,0.0,94,0.00,,,0.00,0,Wunderground v.1.15,2013-09-26 06:01:00,
2013-09-26 02:06:00,45.7,44.1,29.97,NNE,15,0.0,0.0,94,0.00,,,0.00,0,Wunderground v.1.15,2013-09-26 06:06:00,
2013-09-26 02:11:00,45.5,43.9,29.98,NNE,15,0.0,0.0,94,0.00,,,0.00,0,Wunderground v.1.15,2013-09-26 06:11:00,
2013-09-26 02:16:00,45.3,43.7,29.98,North,5,0.0,0.0,94,0.00,,,0.00,0,Wunderground v.1.15,2013-09-26 06:16:00,
2013-09-26 02:22:00,45.2,43.6,29.98,North,5,0.0,0.0,94,0.00,,,0.00,0,Wunderground v.1.15,2013-09-26 06:22:00,
2013-09-26 02:27:00,45.1,43.5,29.98,NNE,17,1.0,2.0,94,0.00,,,0.00,0,Wunderground v.1.15,2013-09-26 06:27:00,
2013-09-26 02:32:00,45.0,43.7,29.98,NNE,13,1.0,2.0,95,0.00,,,0.00,0,Wunderground v.1.15,2013-09-26 06:32:00,
2013-09-26 02:37:00,45.1,43.8,29.98,NNE,13,0.0,2.0,95,0.00,,,0.00,0,Wunderground v.1.15,2013-09-26 06:37:00,
2013-09-26 02:42:00,45.0,43.7,29.97,NNE,13,0.0,1.0,95,0.00,,,0.00,0,Wunderground v.1.15,2013-09-26 06:42:00,
2013-09-26 02:47:00,45.0,43.7,29.98,NNE,17,0.0,1.0,95,0.00,,,0.00,0,Wunderground v.1.15,2013-09-26 06:47:00,
2013-09-26 02:52:00,45.1,43.8,29.98,NNE,17,0.0,0.0,95,0.00,,,0.00,0,Wunderground v.1.15,2013-09-26 06:52:00,
2013-09-26 02:57:00,45.1,43.8,29.98,NNE,17,0.0,0.0,95,0.00,,,0.00,0,Wunderground v.1.15,2013-09-26 06:57:00,
2013-09-26 03:02:00,45.1,43.8,29.98,NNE,17,0.0,0.0,95,0.00,,,0.00,0,Wunderground v.1.15,2013-09-26 07:02:00,
2013-09-26 03:08:00,45.0,43.7,29.98,NNE,17,0.0,0.0,95,0.00,,,0.00,0,Wunderground v.1.15,2013-09-26 07:08:00,
2013-09-26 03:13:00,44.9,43.6,29.98,NNE,17,0.0,0.0,95,0.00,,,0.00,0,Wunderground v.1.15,2013-09-26 07:13:00,
2013-09-26 03:18:00,44.8,43.5,29.98,NNE,17,0.0,0.0,95,0.00,,,0.00,0,Wunderground v.1.15,2013-09-26 07:18:00,
2013-09-26 03:24:00,44.6,43.3,29.98,NNE,17,0.0,0.0,95,0.00,,,0.00,0,Wunderground v.1.15,2013-09-26 07:24:00,
2013-09-26 03:29:00,44.6,43.3,29.98,NNE,17,0.0,0.0,95,0.00,,,0.00,0,Wunderground v.1.15,2013-09-26 07:29:00,
2013-09-26 03:34:00,44.5,43.2,29.98,NNE,17,0.0,0.0,95,0.00,,,0.00,0,Wunderground v.1.15,2013-09-26 07:34:00,
2013-09-26 03:39:00,44.5,43.2,29.98,NNE,17,0.0,0.0,95,0.00,,,0.00,0,Wunderground v.1.15,2013-09-26 07:39:00,
2013-09-26 03:45:00,44.5,43.2,29.98,NNE,17,0.0,0.0,95,0.00,,,0.00,0,Wunderground v.1.15,2013-09-26 07:45:00,
2013-09-26 03:50:00,44.5,43.2,29.98,NNE,17,0.0,0.0,95,0.00,,,0.00,0,Wunderground v.1.15,2013-09-26 07:50:00,
2013-09-26 03:56:00,44.4,43.1,29.98,NNE,17,0.0,0.0,95,0.00,,,0.00,0,Wunderground v.1.15,2013-09-26 07:56:00,
2013-09-26 04:01:00,44.4,43.3,29.98,NNE,17,0.0,0.0,96,0.00,,,0.00,0,Wunderground v.1.15,2013-09-26 08:01:00,
2013-09-26 04:07:00,44.3,43.2,29.98,NNE,21,0.0,0.0,96,0.00,,,0.00,0,Wunderground v.1.15,2013-09-26 08:07:00,
2013-09-26 04:13:00,44.3,43.2,29.99,NNE,21,0.0,0.0,96,0.00,,,0.00,0,Wunderground v.1.15,2013-09-26 08:13:00,
2013-09-26 04:18:00,44.2,43.1,29.98,NNE,21,0.0,0.0,96,0.00,,,0.00,0,Wunderground v.1.15,2013-09-26 08:18:00,
2013-09-26 04:23:00,44.2,43.1,29.99,NNE,23,0.0,0.0,96,0.00,,,0.00,0,Wunderground v.1.15,2013-09-26 08:23:00,
2013-09-26 04:28:00,44.1,43.0,29.99,NNE,23,0.0,0.0,96,0.00,,,0.00,0,Wunderground v.1.15,2013-09-26 08:28:00,
2013-09-26 04:33:00,44.1,43.0,29.99,NNE,19,0.0,1.0,96,0.00,,,0.00,0,Wunderground v.1.15,2013-09-26 08:33:00,
2013-09-26 04:38:00,44.0,42.9,29.99,NNE,19,0.0,1.0,96,0.00,,,0.00,0,Wunderground v.1.15,2013-09-26 08:38:00,
2013-09-26 04:43:00,43.9,42.8,29.99,NNE,19,0.0,0.0,96,0.00,,,0.00,0,Wunderground v.1.15,2013-09-26 08:43:00,
2013-09-26 04:48:00,43.9,42.8,29.99,NNE,19,0.0,0.0,96,0.00,,,0.00,0,Wunderground v.1.15,2013-09-26 08:48:00,
2013-09-26 04:53:00,43.8,42.7,29.99,NNE,19,0.0,0.0,96,0.00,,,0.00,0,Wunderground v.1.15,2013-09-26 08:53:00,
2013-09-26 04:59:00,43.9,42.8,29.99,NNE,26,0.0,3.0,96,0.00,,,0.00,0,Wunderground v.1.15,2013-09-26 08:59:00,
2013-09-26 05:04:00,43.9,42.8,29.99,NNE,24,0.0,2.0,96,0.00,,,0.00,0,Wunderground v.1.15,2013-09-26 09:04:00,
2013-09-26 05:10:00,44.1,43.0,29.99,NNE,24,0.0,0.0,96,0.00,,,0.00,0,Wunderground v.1.15,2013-09-26 09:10:00,
2013-09-26 05:16:00,44.2,43.1,29.99,NNE,24,0.0,0.0,96,0.00,,,0.00,0,Wunderground v.1.15,2013-09-26 09:16:00,
2013-09-26 05:21:00,44.3,43.2,29.99,NNE,24,0.0,1.0,96,0.00,,,0.00,0,Wunderground v.1.15,2013-09-26 09:21:00,
2013-09-26 05:26:00,44.5,43.4,29.99,NNE,24,0.0,2.0,96,0.00,,,0.00,0,Wunderground v.1.15,2013-09-26 09:26:00,
2013-09-26 05:31:00,44.6,43.5,29.99,NNE,24,0.0,0.0,96,0.00,,,0.00,0,Wunderground v.1.15,2013-09-26 09:31:00,
2013-09-26 05:36:00,44.7,43.6,29.99,NNE,24,0.0,0.0,96,0.00,,,0.00,0,Wunderground v.1.15,2013-09-26 09:36:00,
2013-09-26 05:41:00,44.7,43.9,29.99,NNE,24,0.0,0.0,97,0.00,,,0.00,0,Wunderground v.1.15,2013-09-26 09:41:00,
2013-09-26 05:46:00,44.9,44.1,29.99,NNE,24,0.0,0.0,97,0.00,,,0.00,0,Wunderground v.1.15,2013-09-26 09:46:00,
2013-09-26 05:52:00,45.0,44.2,29.99,NNE,24,0.0,0.0,97,0.00,,,0.00,0,Wunderground v.1.15,2013-09-26 09:52:00,
2013-09-26 05:57:00,45.0,44.2,29.99,NNE,24,0.0,0.0,97,0.00,,,0.00,0,Wunderground v.1.15,2013-09-26 09:57:00,
2013-09-26 06:03:00,45.2,44.4,29.99,NNE,24,0.0,0.0,97,0.00,,,0.00,0,Wunderground v.1.15,2013-09-26 10:03:00,
2013-09-26 06:09:00,45.3,44.5,29.99,NNE,24,0.0,0.0,97,0.00,,,0.00,0,Wunderground v.1.15,2013-09-26 10:09:00,
2013-09-26 06:14:00,45.5,44.7,29.99,NNW,343,0.0,1.0,97,0.00,,,0.00,0,Wunderground v.1.15,2013-09-26 10:14:00,
2013-09-26 06:19:00,45.6,44.8,30.00,NNW,343,0.0,1.0,97,0.00,,,0.00,0,Wunderground v.1.15,2013-09-26 10:19:00,
2013-09-26 06:24:00,45.8,45.0,30.00,North,5,0.0,0.0,97,0.00,,,0.00,0,Wunderground v.1.15,2013-09-26 10:24:00,
2013-09-26 06:29:00,46.0,45.2,30.00,North,360,0.0,2.0,97,0.00,,,0.00,0,Wunderground v.1.15,2013-09-26 10:29:00,
2013-09-26 06:34:00,46.1,45.3,30.00,North,360,0.0,0.0,97,0.00,,,0.00,0,Wunderground v.1.15,2013-09-26 10:34:00,
2013-09-26 06:39:00,46.2,45.4,30.00,North,360,0.0,0.0,97,0.00,,,0.00,5,Wunderground v.1.15,2013-09-26 10:39:00,
2013-09-26 06:44:00,46.3,45.5,30.00,ENE,61,0.0,1.0,97,0.00,,,0.00,5,Wunderground v.1.15,2013-09-26 10:44:00,
2013-09-26 06:49:00,46.5,45.7,30.00,North,350,1.0,5.0,97,0.00,,,0.00,9,Wunderground v.1.15,2013-09-26 10:49:00,
2013-09-26 06:54:00,46.8,46.0,30.00,North,350,1.0,2.0,97,0.00,,,0.00,11,Wunderground v.1.15,2013-09-26 10:54:00,
2013-09-26 07:00:00,47.0,46.2,30.00,NNW,348,1.0,1.0,97,0.00,,,0.00,16,Wunderground v.1.15,2013-09-26 11:00:00,
2013-09-26 07:05:00,47.1,46.3,30.00,NNW,348,0.0,1.0,97,0.00,,,0.00,21,Wunderground v.1.15,2013-09-26 11:05:00,
2013-09-26 07:10:00,47.3,46.5,30.00,North,360,0.0,2.0,97,0.00,,,0.00,23,Wunderground v.1.15,2013-09-26 11:10:00,
2013-09-26 07:15:00,47.5,46.7,30.00,NNW,332,1.0,2.0,97,0.00,,,0.00,33,Wunderground v.1.15,2013-09-26 11:15:00,
2013-09-26 07:21:00,47.8,47.0,30.01,NNW,335,1.0,1.0,97,0.00,,,0.00,40,Wunderground v.1.15,2013-09-26 11:21:00,
2013-09-26 07:26:00,47.9,47.1,30.01,North,360,0.0,1.0,97,0.00,,,0.00,40,Wunderground v.1.15,2013-09-26 11:26:00,
2013-09-26 07:32:00,48.1,47.3,30.01,NNW,342,1.0,3.0,97,0.00,,,0.00,51,Wunderground v.1.15,2013-09-26 11:32:00,
2013-09-26 07:37:00,48.3,47.5,30.01,NNW,340,1.0,4.0,97,0.00,,,0.00,58,Wunderground v.1.15,2013-09-26 11:37:00,
2013-09-26 07:43:00,48.7,47.9,30.01,NNW,329,1.0,3.0,97,0.00,,,0.00,63,Wunderground v.1.15,2013-09-26 11:43:00,
2013-09-26 07:48:00,48.9,48.1,30.01,NNW,341,1.0,4.0,97,0.00,,,0.00,67,Wunderground v.1.15,2013-09-26 11:48:00,
2013-09-26 07:54:00,49.2,48.1,30.01,North,355,1.0,1.0,96,0.00,,,0.00,76,Wunderground v.1.15,2013-09-26 11:54:00,
2013-09-26 07:59:00,49.4,48.3,30.01,NNW,344,0.0,1.0,96,0.00,,,0.00,72,Wunderground v.1.15,2013-09-26 11:59:00,
2013-09-26 08:05:00,49.7,48.6,30.01,West,280,0.0,3.0,96,0.00,,,0.00,26,Wunderground v.1.15,2013-09-26 12:05:00,
2013-09-26 08:11:00,49.8,48.7,30.01,West,281,1.0,1.0,96,0.00,,,0.00,28,Wunderground v.1.15,2013-09-26 12:11:00,
2013-09-26 08:17:00,50.1,48.7,30.01,West,267,1.0,2.0,95,0.00,,,0.00,40,Wunderground v.1.15,2013-09-26 12:17:00,
2013-09-26 08:22:00,50.6,49.2,30.01,North,355,2.0,4.0,95,0.00,,,0.00,60,Wunderground v.1.15,2013-09-26 12:22:00,
2013-09-26 08:27:00,51.1,49.4,30.02,NNW,337,3.0,5.0,94,0.00,,,0.00,251,Wunderground v.1.15,2013-09-26 12:27:00,
2013-09-26 08:32:00,51.7,50.0,30.02,North,360,2.0,2.0,94,0.00,,,0.00,262,Wunderground v.1.15,2013-09-26 12:32:00,
2013-09-26 08:37:00,52.3,50.3,30.02,NW,319,2.0,7.0,93,0.00,,,0.00,278,Wunderground v.1.15,2013-09-26 12:37:00,
2013-09-26 08:42:00,53.1,50.5,30.02,NNW,331,2.0,4.0,91,0.00,,,0.00,301,Wunderground v.1.15,2013-09-26 12:42:00,
2013-09-26 08:47:00,53.8,50.6,30.02,NNW,344,3.0,7.0,89,0.00,,,0.00,313,Wunderground v.1.15,2013-09-26 12:47:00,
2013-09-26 08:52:00,54.4,50.6,30.02,North,350,3.0,7.0,87,0.00,,,0.00,338,Wunderground v.1.15,2013-09-26 12:52:00,
2013-09-26 08:58:00,54.9,50.2,30.02,NNE,24,4.0,8.0,84,0.00,,,0.00,353,Wunderground v.1.15,2013-09-26 12:58:00,
2013-09-26 09:04:00,55.5,50.4,30.02,NW,307,4.0,5.0,83,0.00,,,0.00,359,Wunderground v.1.15,2013-09-26 13:04:00,
2013-09-26 09:10:00,55.8,49.7,30.02,NNW,333,5.0,5.0,80,0.00,,,0.00,411,Wunderground v.1.15,2013-09-26 13:10:00,
2013-09-26 09:15:00,55.8,49.4,30.02,NNW,329,7.0,10.0,79,0.00,,,0.00,445,Wunderground v.1.15,2013-09-26 13:15:00,
2013-09-26 09:21:00,56.0,49.6,30.03,ENE,66,7.0,9.0,79,0.00,,,0.00,299,Wunderground v.1.15,2013-09-26 13:21:00,
2013-09-26 09:27:00,56.0,49.6,30.03,NW,312,6.0,9.0,79,0.00,,,0.00,171,Wunderground v.1.15,2013-09-26 13:27:00,
2013-09-26 09:32:00,56.0,49.6,30.03,NNW,338,6.0,6.0,79,0.00,,,0.00,221,Wunderground v.1.15,2013-09-26 13:32:00,
2013-09-26 09:37:00,56.5,50.1,30.02,NNW,327,4.0,6.0,79,0.00,,,0.00,455,Wunderground v.1.15,2013-09-26 13:37:00,
2013-09-26 09:43:00,57.3,50.1,30.02,NNW,342,5.0,9.0,77,0.00,,,0.00,489,Wunderground v.1.15,2013-09-26 13:43:00,
2013-09-26 09:49:00,57.8,50.3,30.02,NNE,16,6.0,11.0,76,0.00,,,0.00,499,Wunderground v.1.15,2013-09-26 13:49:00,
2013-09-26 09:55:00,58.0,49.8,30.02,NW,316,6.0,7.0,74,0.00,,,0.00,512,Wunderground v.1.15,2013-09-26 13:55:00,
2013-09-26 10:01:00,58.0,49.8,30.02,NNE,25,6.0,8.0,74,0.00,,,0.00,536,Wunderground v.1.15,2013-09-26 14:01:00,
2013-09-26 10:07:00,58.6,50.7,30.03,North,9,6.0,8.0,75,0.00,,,0.00,555,Wunderground v.1.15,2013-09-26 14:07:00,
2013-09-26 10:12:00,59.0,50.0,30.03,NNW,333,6.0,9.0,72,0.00,,,0.00,557,Wunderground v.1.15,2013-09-26 14:12:00,
2013-09-26 10:17:00,58.7,49.7,30.03,NNW,346,5.0,13.0,72,0.00,,,0.00,195,Wunderground v.1.15,2013-09-26 14:17:00,
2013-09-26 10:22:00,58.2,49.6,30.03,NE,36,6.0,6.0,73,0.00,,,0.00,619,Wunderground v.1.15,2013-09-26 14:22:00,
2013-09-26 10:28:00,58.5,49.9,30.03,NNE,33,5.0,9.0,73,0.00,,,0.00,596,Wunderground v.1.15,2013-09-26 14:28:00,
2013-09-26 10:34:00,58.9,49.9,30.03,NNW,328,5.0,6.0,72,0.00,,,0.00,489,Wunderground v.1.15,2013-09-26 14:34:00,
2013-09-26 10:39:00,59.5,50.8,30.03,NE,44,5.0,6.0,73,0.00,,,0.00,737,Wunderground v.1.15,2013-09-26 14:39:00,
2013-09-26 10:45:00,60.0,50.6,30.02,NW,315,6.0,12.0,71,0.00,,,0.00,322,Wunderground v.1.15,2013-09-26 14:45:00,
2013-09-26 10:50:00,59.8,50.0,30.03,NW,307,6.0,6.0,70,0.00,,,0.00,265,Wunderground v.1.15,2013-09-26 14:50:00,
2013-09-26 10:56:00,59.4,49.6,30.03,NNW,334,6.0,6.0,70,0.00,,,0.00,230,Wunderground v.1.15,2013-09-26 14:56:00,
2013-09-26 11:01:00,58.9,49.5,30.03,North,5,6.0,11.0,71,0.00,,,0.00,142,Wunderground v.1.15,2013-09-26 15:01:00,
2013-09-26 11:06:00,58.7,50.1,30.03,ENE,60,7.0,11.0,73,0.00,,,0.00,733,Wunderground v.1.15,2013-09-26 15:06:00,
2013-09-26 11:12:00,59.5,50.8,30.02,NE,42,5.0,9.0,73,0.00,,,0.00,722,Wunderground v.1.15,2013-09-26 15:12:00,
2013-09-26 11:17:00,60.1,50.7,30.02,WNW,302,4.0,9.0,71,0.00,,,0.00,719,Wunderground v.1.15,2013-09-26 15:17:00,
2013-09-26 11:23:00,60.4,50.2,30.02,North,355,6.0,7.0,69,0.00,,,0.00,742,Wunderground v.1.15,2013-09-26 15:23:00,
2013-09-26 11:29:00,60.6,50.8,30.02,NW,326,6.0,9.0,70,0.00,,,0.00,752,Wunderground v.1.15,2013-09-26 15:29:00,
2013-09-26 11:35:00,61.1,51.2,30.01,NE,41,5.0,11.0,70,0.00,,,0.00,654,Wunderground v.1.15,2013-09-26 15:35:00,
2013-09-26 11:41:00,61.3,51.0,30.01,NW,319,5.0,5.0,69,0.00,,,0.00,647,Wunderground v.1.15,2013-09-26 15:41:00,
2013-09-26 11:47:00,61.2,50.6,30.01,NNW,348,5.0,7.0,68,0.00,,,0.00,656,Wunderground v.1.15,2013-09-26 15:47:00,
2013-09-26 11:53:00,61.1,50.5,30.01,NE,38,6.0,9.0,68,0.00,,,0.00,664,Wunderground v.1.15,2013-09-26 15:53:00,
2013-09-26 11:58:00,61.0,50.4,30.01,NW,311,7.0,10.0,68,0.00,,,0.00,663,Wunderground v.1.15,2013-09-26 15:58:00,
2013-09-26 12:03:00,61.2,50.6,30.02,NNE,19,6.0,6.0,68,0.00,,,0.00,664,Wunderground v.1.15,2013-09-26 16:03:00,
2013-09-26 12:08:00,61.4,50.3,30.02,NNW,346,5.0,11.0,67,0.00,,,0.00,752,Wunderground v.1.15,2013-09-26 16:08:00,
2013-09-26 12:13:00,61.7,51.4,30.02,NE,34,5.0,6.0,69,0.00,,,0.00,789,Wunderground v.1.15,2013-09-26 16:13:00,
2013-09-26 12:19:00,62.1,51.4,30.01,NNW,327,4.0,9.0,68,0.00,,,0.00,227,Wunderground v.1.15,2013-09-26 16:19:00,
2013-09-26 12:25:00,62.0,50.9,30.02,NNW,346,4.0,4.0,67,0.00,,,0.00,309,Wunderground v.1.15,2013-09-26 16:25:00,
2013-09-26 12:30:00,62.0,50.5,30.02,NNW,333,4.0,8.0,66,0.00,,,0.00,842,Wunderground v.1.15,2013-09-26 16:30:00,
2013-09-26 12:35:00,62.1,51.0,30.01,NE,40,6.0,8.0,67,0.00,,,0.00,847,Wunderground v.1.15,2013-09-26 16:35:00,
2013-09-26 12:41:00,62.1,50.6,30.02,WNW,302,6.0,8.0,66,0.00,,,0.00,274,Wunderground v.1.15,2013-09-26 16:41:00,
2013-09-26 12:46:00,61.9,50.4,30.02,NW,309,5.0,8.0,66,0.00,,,0.00,313,Wunderground v.1.15,2013-09-26 16:46:00,
2013-09-26 12:51:00,61.8,51.1,30.02,North,5,4.0,4.0,68,0.00,,,0.00,339,Wunderground v.1.15,2013-09-26 16:51:00,
2013-09-26 12:57:00,62.2,51.9,30.01,NNW,333,2.0,7.0,69,0.00,,,0.00,387,Wunderground v.1.15,2013-09-26 16:57:00,
2013-09-26 13:03:00,62.1,51.0,30.01,NNW,333,4.0,10.0,67,0.00,,,0.00,299,Wunderground v.1.15,2013-09-26 17:03:00,
2013-09-26 13:09:00,62.0,51.7,30.01,WNW,292,5.0,10.0,69,0.00,,,0.00,418,Wunderground v.1.15,2013-09-26 17:09:00,
2013-09-26 13:14:00,61.9,50.8,30.01,NNW,342,5.0,8.0,67,0.00,,,0.00,339,Wunderground v.1.15,2013-09-26 17:14:00,
2013-09-26 13:19:00,61.8,50.7,30.01,WNW,299,5.0,9.0,67,0.00,,,0.00,257,Wunderground v.1.15,2013-09-26 17:19:00,
2013-09-26 13:25:00,61.8,50.7,30.01,WNW,299,5.0,6.0,67,0.00,,,0.00,234,Wunderground v.1.15,2013-09-26 17:25:00,
2013-09-26 13:30:00,61.6,50.5,30.01,North,5,5.0,6.0,67,0.00,,,0.00,250,Wunderground v.1.15,2013-09-26 17:30:00,
2013-09-26 13:35:00,61.6,50.5,30.01,NW,315,5.0,11.0,67,0.00,,,0.00,265,Wunderground v.1.15,2013-09-26 17:35:00,
2013-09-26 13:40:00,61.6,50.9,30.02,North,360,5.0,5.0,68,0.00,,,0.00,248,Wunderground v.1.15,2013-09-26 17:40:00,
2013-09-26 13:46:00,61.7,51.0,30.02,NW,313,5.0,5.0,68,0.00,,,0.00,441,Wunderground v.1.15,2013-09-26 17:46:00,
2013-09-26 13:51:00,61.9,51.2,30.01,North,350,5.0,5.0,68,0.00,,,0.00,322,Wunderground v.1.15,2013-09-26 17:51:00,
2013-09-26 13:56:00,62.1,51.8,30.01,NW,312,4.0,6.0,69,0.00,,,0.00,265,Wunderground v.1.15,2013-09-26 17:56:00,
2013-09-26 14:02:00,62.3,51.6,30.02,NE,49,4.0,9.0,68,0.00,,,0.00,851,Wunderground v.1.15,2013-09-26 18:02:00,
2013-09-26 14:08:00,62.7,51.6,30.01,ENE,78,5.0,9.0,67,0.00,,,0.00,858,Wunderground v.1.15,2013-09-26 18:08:00,
2013-09-26 14:13:00,63.3,51.7,30.01,NNE,16,5.0,6.0,66,0.00,,,0.00,747,Wunderground v.1.15,2013-09-26 18:13:00,
2013-09-26 14:19:00,63.9,52.3,30.01,NW,324,4.0,6.0,66,0.00,,,0.00,241,Wunderground v.1.15,2013-09-26 18:19:00,
2013-09-26 14:24:00,63.8,51.4,30.01,NNW,346,4.0,8.0,64,0.00,,,0.00,304,Wunderground v.1.15,2013-09-26 18:24:00,
2013-09-26 14:30:00,63.4,51.4,30.01,NNE,12,5.0,5.0,65,0.00,,,0.00,248,Wunderground v.1.15,2013-09-26 18:30:00,
2013-09-26 14:35:00,63.1,52.0,30.01,NW,315,4.0,5.0,67,0.00,,,0.00,220,Wunderground v.1.15,2013-09-26 18:35:00,
2013-09-26 14:40:00,62.9,52.2,30.01,WSW,251,4.0,8.0,68,0.00,,,0.00,220,Wunderground v.1.15,2013-09-26 18:40:00,
2013-09-26 14:45:00,62.8,52.5,30.01,NNE,19,3.0,8.0,69,0.00,,,0.00,294,Wunderground v.1.15,2013-09-26 18:45:00,
2013-09-26 14:51:00,62.9,51.8,30.01,NNE,23,3.0,5.0,67,0.00,,,0.00,255,Wunderground v.1.15,2013-09-26 18:51:00,
2013-09-26 14:56:00,62.9,51.0,30.01,North,360,4.0,10.0,65,0.00,,,0.00,250,Wunderground v.1.15,2013-09-26 18:56:00,
2013-09-26 15:02:00,62.7,51.2,30.01,NNW,336,5.0,7.0,66,0.00,,,0.00,218,Wunderground v.1.15,2013-09-26 19:02:00,
2013-09-26 15:07:00,62.7,51.2,30.01,NNE,23,5.0,9.0,66,0.00,,,0.00,243,Wunderground v.1.15,2013-09-26 19:07:00,
2013-09-26 15:12:00,62.7,51.6,30.01,NNW,340,5.0,9.0,67,0.00,,,0.00,172,Wunderground v.1.15,2013-09-26 19:12:00,
2013-09-26 15:17:00,62.7,51.6,30.01,NNE,16,4.0,9.0,67,0.00,,,0.00,179,Wunderground v.1.15,2013-09-26 19:17:00,
2013-09-26 15:23:00,62.4,51.3,30.02,NNW,342,5.0,9.0,67,0.00,,,0.00,218,Wunderground v.1.15,2013-09-26 19:23:00,
2013-09-26 15:28:00,62.3,51.2,30.02,North,355,5.0,9.0,67,0.00,,,0.00,213,Wunderground v.1.15,2013-09-26 19:28:00,
2013-09-26 15:34:00,62.5,51.8,30.01,North,5,3.0,7.0,68,0.00,,,0.00,257,Wunderground v.1.15,2013-09-26 19:34:00,
2013-09-26 15:39:00,62.7,51.6,30.01,NW,316,3.0,7.0,67,0.00,,,0.00,190,Wunderground v.1.15,2013-09-26 19:39:00,
2013-09-26 15:45:00,62.8,51.7,30.01,NNW,342,4.0,7.0,67,0.00,,,0.00,399,Wunderground v.1.15,2013-09-26 19:45:00,
2013-09-26 15:51:00,63.0,51.9,30.02,NW,319,5.0,5.0,67,0.00,,,0.00,167,Wunderground v.1.15,2013-09-26 19:51:00,
2013-09-26 15:57:00,63.1,52.4,30.02,NNW,327,3.0,5.0,68,0.00,,,0.00,172,Wunderground v.1.15,2013-09-26 19:57:00,
2013-09-26 16:03:00,62.9,52.2,30.02,NNW,329,4.0,7.0,68,0.00,,,0.00,160,Wunderground v.1.15,2013-09-26 20:03:00,
2013-09-26 16:09:00,62.8,52.1,30.02,NNE,19,3.0,7.0,68,0.00,,,0.00,163,Wunderground v.1.15,2013-09-26 20:09:00,
2013-09-26 16:40:00,62.0,51.7,30.03,NNW,329,5.0,5.0,69,0.00,,,0.00,100,Wunderground v.1.15,2013-09-26 20:40:00,
2013-09-26 16:47:00,61.9,51.6,30.03,NNW,332,3.0,6.0,69,0.00,,,0.00,98,Wunderground v.1.15,2013-09-26 20:47:00,
2013-09-26 16:52:00,61.8,51.9,30.03,NW,313,4.0,5.0,70,0.00,,,0.00,72,Wunderground v.1.15,2013-09-26 20:52:00,
2013-09-26 16:57:00,61.7,52.2,30.03,NNW,343,3.0,5.0,71,0.00,,,0.00,63,Wunderground v.1.15,2013-09-26 20:57:00,
2013-09-26 17:03:00,61.6,51.7,30.03,North,355,3.0,4.0,70,0.00,,,0.00,63,Wunderground v.1.15,2013-09-26 21:03:00,
2013-09-26 17:08:00,61.5,52.0,30.04,NE,38,3.0,4.0,71,0.00,,,0.00,56,Wunderground v.1.15,2013-09-26 21:08:00,
2013-09-26 17:14:00,61.3,51.8,30.04,North,350,3.0,5.0,71,0.00,,,0.00,49,Wunderground v.1.15,2013-09-26 21:14:00,
2013-09-26 17:20:00,61.1,51.2,30.04,North,355,5.0,5.0,70,0.00,,,0.00,40,Wunderground v.1.15,2013-09-26 21:20:00,
2013-09-26 17:26:00,60.9,51.0,30.04,NW,316,6.0,9.0,70,0.00,,,0.00,35,Wunderground v.1.15,2013-09-26 21:26:00,
2013-09-26 17:31:00,60.7,51.2,30.04,NNE,13,5.0,5.0,71,0.00,,,0.00,32,Wunderground v.1.15,2013-09-26 21:31:00,
2013-09-26 17:36:00,60.6,51.1,30.05,NW,319,4.0,5.0,71,0.00,,,0.00,28,Wunderground v.1.15,2013-09-26 21:36:00,
2013-09-26 17:42:00,60.4,51.3,30.05,NNE,13,4.0,7.0,72,0.00,,,0.00,26,Wunderground v.1.15,2013-09-26 21:42:00,
2013-09-26 17:48:00,60.3,51.2,30.05,NNW,336,4.0,7.0,72,0.00,,,0.00,26,Wunderground v.1.15,2013-09-26 21:48:00,
2013-09-26 17:54:00,60.1,51.4,30.05,NNE,13,5.0,6.0,73,0.00,,,0.00,18,Wunderground v.1.15,2013-09-26 21:54:00,
2013-09-26 18:00:00,59.9,51.2,30.05,NNW,333,4.0,4.0,73,0.00,,,0.00,12,Wunderground v.1.15,2013-09-26 22:00:00,
2013-09-26 18:05:00,59.7,51.0,30.05,North,355,4.0,7.0,73,0.00,,,0.00,11,Wunderground v.1.15,2013-09-26 22:05:00,
2013-09-26 18:10:00,59.6,50.9,30.06,NNW,335,4.0,4.0,73,0.00,,,0.00,11,Wunderground v.1.15,2013-09-26 22:10:00,
2013-09-26 18:16:00,59.4,51.1,30.06,North,355,4.0,6.0,74,0.00,,,0.00,7,Wunderground v.1.15,2013-09-26 22:16:00,
2013-09-26 18:21:00,59.3,51.0,30.06,NNW,344,3.0,5.0,74,0.00,,,0.00,0,Wunderground v.1.15,2013-09-26 22:21:00,
2013-09-26 18:27:00,59.1,50.8,30.06,NNW,336,4.0,8.0,74,0.00,,,0.00,0,Wunderground v.1.15,2013-09-26 22:27:00,
2013-09-26 18:33:00,58.9,50.6,30.06,North,355,4.0,5.0,74,0.00,,,0.00,0,Wunderground v.1.15,2013-09-26 22:33:00,
2013-09-26 18:39:00,58.8,50.9,30.07,NNW,342,2.0,5.0,75,0.00,,,0.00,0,Wunderground v.1.15,2013-09-26 22:39:00,
2013-09-26 18:44:00,58.6,50.7,30.07,NNW,338,2.0,5.0,75,0.00,,,0.00,0,Wunderground v.1.15,2013-09-26 22:44:00,
2013-09-26 18:50:00,58.4,50.9,30.07,North,360,3.0,3.0,76,0.00,,,0.00,0,Wunderground v.1.15,2013-09-26 22:50:00,
2013-09-26 18:56:00,58.2,50.7,30.07,North,5,3.0,5.0,76,0.00,,,0.00,0,Wunderground v.1.15,2013-09-26 22:56:00,
2013-09-26 19:01:00,57.9,50.4,30.07,North,355,4.0,6.0,76,0.00,,,0.00,0,Wunderground v.1.15,2013-09-26 23:01:00,
2013-09-26 19:07:00,57.7,50.2,30.08,North,351,4.0,8.0,76,0.00,,,0.00,0,Wunderground v.1.15,2013-09-26 23:07:00,
2013-09-26 19:12:00,57.6,50.4,30.08,NNW,331,4.0,6.0,77,0.00,,,0.00,0,Wunderground v.1.15,2013-09-26 23:12:00,
2013-09-26 19:18:00,57.5,50.7,30.08,NNW,338,3.0,6.0,78,0.00,,,0.00,0,Wunderground v.1.15,2013-09-26 23:18:00,
2013-09-26 19:23:00,57.3,50.5,30.08,North,360,2.0,4.0,78,0.00,,,0.00,0,Wunderground v.1.15,2013-09-26 23:23:00,
2013-09-26 19:29:00,57.2,50.4,30.09,North,355,2.0,4.0,78,0.00,,,0.00,0,Wunderground v.1.15,2013-09-26 23:29:00,
2013-09-26 19:35:00,57.2,50.7,30.09,NW,308,2.0,4.0,79,0.00,,,0.00,0,Wunderground v.1.15,2013-09-26 23:35:00,
2013-09-26 19:40:00,57.1,50.6,30.09,NNW,347,2.0,2.0,79,0.00,,,0.00,0,Wunderground v.1.15,2013-09-26 23:40:00,
2013-09-26 19:45:00,56.9,50.8,30.09,North,5,1.0,3.0,80,0.00,,,0.00,0,Wunderground v.1.15,2013-09-26 23:45:00,
2013-09-26 19:51:00,56.8,50.7,30.09,NNW,344,1.0,2.0,80,0.00,,,0.00,0,Wunderground v.1.15,2013-09-26 23:51:00,
2013-09-26 19:56:00,56.6,50.5,30.09,WNW,300,2.0,4.0,80,0.00,,,0.00,0,Wunderground v.1.15,2013-09-26 23:56:00,
2013-09-26 20:02:00,56.5,50.7,30.09,NNW,345,2.0,2.0,81,0.00,,,0.00,0,Wunderground v.1.15,2013-09-27 00:02:00,
2013-09-26 20:10:00,56.3,50.9,30.09,NNW,332,1.0,1.0,82,0.00,,,0.00,0,Wunderground v.1.15,2013-09-27 00:10:00,
2013-09-26 20:16:00,56.2,50.8,30.09,North,5,0.0,1.0,82,0.00,,,0.00,0,Wunderground v.1.15,2013-09-27 00:16:00,
2013-09-26 20:21:00,56.1,50.7,30.09,North,360,1.0,4.0,82,0.00,,,0.00,0,Wunderground v.1.15,2013-09-27 00:21:00,
2013-09-26 20:27:00,56.0,50.6,30.10,NNW,346,1.0,4.0,82,0.00,,,0.00,0,Wunderground v.1.15,2013-09-27 00:27:00,
2013-09-26 20:32:00,55.9,50.8,30.10,NNW,343,2.0,2.0,83,0.00,,,0.00,0,Wunderground v.1.15,2013-09-27 00:32:00,
2013-09-26 20:38:00,55.9,50.8,30.10,North,360,2.0,5.0,83,0.00,,,0.00,0,Wunderground v.1.15,2013-09-27 00:38:00,
2013-09-26 20:43:00,55.8,50.7,30.10,North,355,2.0,3.0,83,0.00,,,0.00,0,Wunderground v.1.15,2013-09-27 00:43:00,
2013-09-26 20:48:00,55.8,50.7,30.10,North,355,3.0,5.0,83,0.00,,,0.00,0,Wunderground v.1.15,2013-09-27 00:48:00,
2013-09-26 20:54:00,55.8,50.7,30.10,NE,51,3.0,3.0,83,0.00,,,0.00,0,Wunderground v.1.15,2013-09-27 00:54:00,
2013-09-26 20:59:00,55.8,50.7,30.10,NNW,344,2.0,3.0,83,0.00,,,0.00,0,Wunderground v.1.15,2013-09-27 00:59:00,
2013-09-26 21:05:00,55.8,50.7,30.11,NNW,336,2.0,4.0,83,0.00,,,0.00,0,Wunderground v.1.15,2013-09-27 01:05:00,
2013-09-26 21:11:00,55.8,50.7,30.10,NW,325,3.0,3.0,83,0.00,,,0.00,0,Wunderground v.1.15,2013-09-27 01:11:00,
2013-09-26 21:17:00,55.8,50.7,30.11,North,5,3.0,4.0,83,0.00,,,0.00,0,Wunderground v.1.15,2013-09-27 01:17:00,
2013-09-26 21:23:00,55.8,50.7,30.11,NNW,338,2.0,4.0,83,0.00,,,0.00,0,Wunderground v.1.15,2013-09-27 01:23:00,
2013-09-26 21:28:00,55.8,50.7,30.11,NNW,348,3.0,4.0,83,0.00,,,0.00,0,Wunderground v.1.15,2013-09-27 01:28:00,
2013-09-26 21:33:00,55.8,50.7,30.11,North,350,3.0,5.0,83,0.00,,,0.00,0,Wunderground v.1.15,2013-09-27 01:33:00,
2013-09-26 21:39:00,55.8,50.7,30.11,NNE,23,3.0,5.0,83,0.00,,,0.00,0,Wunderground v.1.15,2013-09-27 01:39:00,
2013-09-26 21:44:00,55.7,50.6,30.11,NW,317,3.0,3.0,83,0.00,,,0.00,0,Wunderground v.1.15,2013-09-27 01:44:00,
2013-09-26 21:50:00,55.7,50.6,30.11,North,355,2.0,3.0,83,0.00,,,0.00,0,Wunderground v.1.15,2013-09-27 01:50:00,
2013-09-26 21:56:00,55.7,50.6,30.10,NW,321,2.0,3.0,83,0.00,,,0.00,0,Wunderground v.1.15,2013-09-27 01:56:00,
2013-09-26 22:01:00,55.6,50.5,30.11,NW,322,2.0,4.0,83,0.00,,,0.00,0,Wunderground v.1.15,2013-09-27 02:01:00,
2013-09-26 22:07:00,55.6,50.5,30.11,NNW,331,3.0,5.0,83,0.00,,,0.00,0,Wunderground v.1.15,2013-09-27 02:07:00,
2013-09-26 22:12:00,55.6,50.5,30.11,NNW,334,3.0,4.0,83,0.00,,,0.00,0,Wunderground v.1.15,2013-09-27 02:12:00,
2013-09-26 22:17:00,55.6,50.5,30.11,North,350,3.0,4.0,83,0.00,,,0.00,0,Wunderground v.1.15,2013-09-27 02:17:00,
2013-09-26 22:23:00,55.5,50.7,30.11,NNW,348,2.0,5.0,84,0.00,,,0.00,0,Wunderground v.1.15,2013-09-27 02:23:00,
2013-09-26 22:28:00,55.5,50.7,30.11,North,355,2.0,5.0,84,0.00,,,0.00,0,Wunderground v.1.15,2013-09-27 02:28:00,
2013-09-26 22:34:00,55.5,50.7,30.11,North,360,2.0,3.0,84,0.00,,,0.00,0,Wunderground v.1.15,2013-09-27 02:34:00,
2013-09-26 22:40:00,55.5,50.7,30.11,NNW,344,1.0,3.0,84,0.00,,,0.00,0,Wunderground v.1.15,2013-09-27 02:40:00,
2013-09-26 22:46:00,55.4,50.6,30.11,NNW,342,1.0,3.0,84,0.00,,,0.00,0,Wunderground v.1.15,2013-09-27 02:46:00,
2013-09-26 22:52:00,55.4,50.6,30.11,North,360,1.0,1.0,84,0.00,,,0.00,0,Wunderground v.1.15,2013-09-27 02:52:00,
2013-09-26 22:58:00,55.3,50.5,30.11,North,355,1.0,1.0,84,0.00,,,0.00,0,Wunderground v.1.15,2013-09-27 02:58:00,
2013-09-26 23:04:00,55.3,50.9,30.11,NNW,340,1.0,3.0,85,0.00,,,0.00,0,Wunderground v.1.15,2013-09-27 03:04:00,
2013-09-26 23:09:00,55.3,50.9,30.11,NNW,338,1.0,3.0,85,0.00,,,0.00,0,Wunderground v.1.15,2013-09-27 03:09:00,
2013-09-26 23:14:00,55.2,50.8,30.11,NNE,17,1.0,2.0,85,0.00,,,0.00,0,Wunderground v.1.15,2013-09-27 03:14:00,
2013-09-26 23:20:00,55.2,50.8,30.11,North,355,1.0,2.0,85,0.00,,,0.00,0,Wunderground v.1.15,2013-09-27 03:20:00,
2013-09-26 23:26:00,55.1,50.7,30.11,NNE,28,1.0,3.0,85,0.00,,,0.00,0,Wunderground v.1.15,2013-09-27 03:26:00,
2013-09-26 23:32:00,55.1,50.7,30.11,NNW,336,2.0,3.0,85,0.00,,,0.00,0,Wunderground v.1.15,2013-09-27 03:32:00,
2013-09-26 23:37:00,55.1,50.7,30.11,North,355,2.0,3.0,85,0.00,,,0.00,0,Wunderground v.1.15,2013-09-27 03:37:00,
2013-09-26 23:43:00,55.1,50.7,30.11,North,350,2.0,3.0,85,0.00,,,0.00,0,Wunderground v.1.15,2013-09-27 03:43:00,
2013-09-26 23:49:00,55.1,50.7,30.11,North,5,2.0,4.0,85,0.00,,,0.00,0,Wunderground v.1.15,2013-09-27 03:49:00,
2013-09-26 23:54:00,55.2,50.8,30.11,NNW,332,2.0,5.0,85,0.00,,,0.00,0,Wunderground v.1.15,2013-09-27 03:54:00,